createdAt,value
2022-09-18T00:02:09.682Z,4.17
2022-09-18T00:04:37.568Z,5.57
2022-09-18T00:07:05.332Z,4.97
2022-09-18T00:09:32.948Z,4.03
2022-09-18T00:12:00.617Z,5.47
2022-09-18T00:14:29.573Z,6.37
2022-09-18T00:16:57.298Z,5.47
2022-09-18T00:19:24.891Z,5.20
2022-09-18T00:21:52.805Z,9.07
2022-09-18T00:24:22.133Z,6.77
2022-09-18T00:26:55.681Z,6.40
2022-09-18T00:29:23.306Z,5.53
2022-09-18T00:31:52.492Z,3.93
2022-09-18T00:34:20.092Z,4.87
2022-09-18T00:36:47.770Z,4.67
2022-09-18T00:39:15.341Z,7.07
2022-09-18T00:41:43.795Z,8.57
2022-09-18T00:44:31.355Z,4.17
2022-09-18T00:47:04.260Z,4.87
2022-09-18T00:49:31.903Z,4.37
2022-09-18T00:52:00.408Z,4.10
2022-09-18T00:54:29.299Z,5.33
2022-09-18T00:56:58.113Z,5.07
2022-09-18T00:59:27.208Z,6.63
2022-09-18T01:01:55.287Z,5.63
2022-09-18T01:04:24.763Z,5.37
2022-09-18T01:06:54.031Z,6.60
2022-09-18T01:09:28.660Z,4.80
2022-09-18T01:11:59.134Z,5.43
2022-09-18T01:14:30.199Z,6.37
2022-09-18T01:17:03.421Z,7.47
2022-09-18T01:19:57.615Z,6.30
2022-09-18T01:22:30.888Z,9.13
2022-09-18T01:25:12.536Z,9.03
2022-09-18T01:27:51.057Z,6.60
2022-09-18T01:30:18.679Z,9.60
2022-09-18T01:32:48.384Z,9.93
2022-09-18T01:35:39.413Z,6.40
2022-09-18T01:38:06.307Z,7.40
2022-09-18T01:40:35.785Z,7.27
2022-09-18T01:43:06.420Z,9.33
2022-09-18T01:45:34.673Z,6.43
2022-09-18T01:48:03.787Z,7.67
2022-09-18T01:50:32.339Z,8.87
2022-09-18T01:53:08.292Z,7.40
2022-09-18T01:55:35.902Z,7.90
2022-09-18T01:58:06.863Z,9.77
2022-09-18T02:00:34.794Z,3.73
2022-09-18T02:03:04.238Z,4.33
2022-09-18T02:05:34.629Z,4.90
2022-09-18T02:08:08.731Z,6.10
2022-09-18T02:10:38.582Z,5.40
2022-09-18T02:13:07.711Z,6.17
2022-09-18T02:15:36.917Z,5.23
2022-09-18T02:18:06.720Z,6.07
2022-09-18T02:20:34.288Z,3.90
2022-09-18T02:23:05.225Z,3.77
2022-09-18T02:25:35.896Z,5.97
2022-09-18T02:28:03.823Z,5.50
2022-09-18T02:30:32.752Z,6.47
2022-09-18T02:33:00.557Z,6.67
2022-09-18T02:35:31.285Z,7.07
2022-09-18T02:37:59.448Z,5.17
2022-09-18T02:40:32.082Z,4.13
2022-09-18T02:43:07.406Z,7.97
2022-09-18T02:45:37.911Z,6.33
2022-09-18T02:48:12.792Z,2.90
2022-09-18T02:50:41.849Z,5.53
2022-09-18T02:53:10.777Z,3.63
2022-09-18T02:55:43.114Z,5.97
2022-09-18T02:58:13.381Z,4.77
2022-09-18T03:00:43.051Z,4.23
2022-09-18T03:03:12.144Z,3.97
2022-09-18T03:05:39.756Z,4.07
2022-09-18T03:08:07.840Z,6.47
2022-09-18T03:10:35.464Z,5.57
2022-09-18T03:13:03.165Z,3.40
2022-09-18T03:15:30.784Z,4.63
2022-09-18T03:17:59.888Z,8.87
2022-09-18T03:20:27.580Z,4.60
2022-09-18T03:22:55.197Z,6.43
2022-09-18T03:25:22.851Z,5.20
2022-09-18T03:27:53.698Z,4.97
2022-09-18T03:30:21.317Z,6.00
2022-09-18T03:32:48.952Z,3.50
2022-09-18T03:35:18.091Z,4.10
2022-09-18T03:37:45.873Z,7.70
2022-09-18T03:40:13.552Z,3.83
2022-09-18T03:42:41.318Z,6.50
2022-09-18T03:45:10.109Z,5.07
2022-09-18T03:47:37.873Z,6.33
2022-09-18T03:50:06.652Z,6.17
2022-09-18T03:52:35.770Z,3.97
2022-09-18T03:55:03.427Z,5.90
2022-09-18T03:57:31.120Z,5.27
2022-09-18T03:59:58.819Z,3.73
2022-09-18T04:02:26.599Z,4.80
2022-09-18T04:04:54.818Z,4.97
2022-09-18T04:07:22.488Z,4.30
2022-09-18T04:09:51.652Z,3.20
2022-09-18T04:12:19.489Z,8.87
2022-09-18T04:14:47.123Z,3.33
2022-09-18T04:17:16.095Z,4.93
2022-09-18T04:19:43.715Z,4.63
2022-09-18T04:22:11.465Z,4.43
2022-09-18T04:24:39.683Z,2.60
2022-09-18T04:27:08.961Z,4.20
2022-09-18T04:29:36.679Z,2.80
2022-09-18T04:32:05.408Z,3.03
2022-09-18T04:34:33.239Z,4.77
2022-09-18T04:37:00.848Z,5.10
2022-09-18T04:39:28.937Z,4.20
2022-09-18T04:41:57.059Z,3.03
2022-09-18T04:44:26.199Z,4.37
2022-09-18T04:46:53.866Z,4.43
2022-09-18T04:49:21.629Z,4.73
2022-09-18T04:51:49.277Z,6.10
2022-09-18T04:54:17.001Z,4.63
2022-09-18T04:56:44.688Z,4.60
2022-09-18T04:59:12.322Z,5.03
2022-09-18T05:01:41.395Z,6.47
2022-09-18T05:04:09.208Z,5.80
2022-09-18T05:06:36.815Z,4.60
2022-09-18T05:09:04.633Z,4.37
2022-09-18T05:11:32.251Z,3.67
2022-09-18T05:14:00.108Z,4.40
2022-09-18T05:16:27.910Z,3.23
2022-09-18T05:18:57.063Z,5.53
2022-09-18T05:21:25.134Z,3.37
2022-09-18T05:23:52.817Z,3.67
2022-09-18T05:26:20.547Z,2.43
2022-09-18T05:28:50.171Z,4.13
2022-09-18T05:31:18.026Z,5.50
2022-09-18T05:33:45.836Z,3.77
2022-09-18T05:36:15.007Z,5.87
2022-09-18T05:38:42.952Z,2.93
2022-09-18T05:41:10.846Z,4.27
2022-09-18T05:43:38.717Z,3.57
2022-09-18T05:46:07.149Z,6.33
2022-09-18T05:48:35.104Z,4.63
2022-09-18T05:51:02.975Z,7.20
2022-09-18T05:53:32.348Z,6.63
2022-09-18T05:56:00.515Z,5.20
2022-09-18T05:58:28.446Z,5.77
2022-09-18T06:00:58.807Z,4.87
2022-09-18T06:03:28.448Z,3.70
2022-09-18T06:05:56.275Z,5.13
2022-09-18T06:08:24.317Z,6.67
2022-09-18T06:10:54.750Z,3.47
2022-09-18T06:13:22.613Z,4.00
2022-09-18T06:15:52.298Z,5.63
2022-09-18T06:18:20.374Z,4.23
2022-09-18T06:20:53.514Z,3.63
2022-09-18T06:23:21.592Z,5.20
2022-09-18T06:25:49.354Z,2.73
2022-09-18T06:28:18.726Z,3.10
2022-09-18T06:30:46.600Z,3.40
2022-09-18T06:33:14.420Z,3.37
2022-09-18T06:35:42.736Z,3.13
2022-09-18T06:38:11.447Z,3.57
2022-09-18T06:40:39.398Z,4.07
2022-09-18T06:43:07.228Z,2.97
2022-09-18T06:45:36.568Z,2.40
2022-09-18T06:48:04.790Z,1.97
2022-09-18T06:50:32.596Z,4.97
2022-09-18T06:53:02.805Z,2.33
2022-09-18T06:55:31.833Z,2.40
2022-09-18T06:57:59.931Z,3.33
2022-09-18T07:00:29.195Z,4.27
2022-09-18T07:02:58.840Z,3.97
2022-09-18T07:05:27.308Z,2.83
2022-09-18T07:07:55.323Z,2.87
2022-09-18T07:10:26.346Z,2.97
2022-09-18T07:12:57.048Z,3.33
2022-09-18T07:15:24.896Z,4.27
2022-09-18T07:17:53.097Z,3.53
2022-09-18T07:20:22.348Z,3.40
2022-09-18T07:22:54.761Z,2.90
2022-09-18T07:25:22.749Z,2.33
2022-09-18T07:27:51.463Z,3.63
2022-09-18T07:30:22.299Z,4.73
2022-09-18T07:32:50.174Z,4.17
2022-09-18T07:35:18.058Z,3.80
2022-09-18T07:37:47.370Z,2.67
2022-09-18T07:40:15.365Z,3.97
2022-09-18T07:42:43.235Z,3.13
2022-09-18T07:45:11.208Z,4.10
2022-09-18T07:47:38.904Z,1.90
2022-09-18T07:50:09.158Z,2.10
2022-09-18T07:52:37.048Z,3.07
2022-09-18T07:55:07.173Z,2.43
2022-09-18T07:57:35.494Z,2.30
2022-09-18T08:00:04.286Z,2.43
2022-09-18T08:02:35.110Z,1.60
2022-09-18T08:05:02.974Z,1.70
2022-09-18T08:07:31.038Z,1.77
2022-09-18T08:10:01.030Z,2.87
2022-09-18T08:12:30.197Z,1.10
2022-09-18T08:15:00.155Z,2.00
2022-09-18T08:17:30.909Z,2.70
2022-09-18T08:19:58.580Z,1.30
2022-09-18T08:22:26.389Z,2.20
2022-09-18T08:24:54.040Z,3.80
2022-09-18T08:27:21.822Z,3.27
2022-09-18T08:29:50.882Z,1.90
2022-09-18T08:32:18.564Z,2.00
2022-09-18T08:34:46.262Z,1.87
2022-09-18T08:37:13.917Z,1.87
2022-09-18T08:39:41.586Z,3.03
2022-09-18T08:42:15.518Z,4.07
2022-09-18T08:44:46.811Z,4.10
2022-09-18T08:47:17.241Z,4.10
2022-09-18T08:49:46.122Z,3.33
2022-09-18T08:52:15.066Z,2.40
2022-09-18T08:54:48.255Z,2.93
2022-09-18T08:57:18.995Z,3.37
2022-09-18T08:59:48.211Z,2.37
2022-09-18T09:02:25.171Z,3.27
2022-09-18T09:04:53.405Z,2.30
2022-09-18T09:07:31.483Z,2.97
2022-09-18T09:10:17.820Z,5.13
2022-09-18T09:12:48.678Z,2.10
2022-09-18T09:15:21.838Z,2.83
2022-09-18T09:17:55.484Z,5.43
2022-09-18T09:20:24.382Z,7.53
2022-09-18T09:22:57.761Z,4.93
2022-09-18T09:25:28.452Z,4.67
2022-09-18T09:27:59.755Z,5.50
2022-09-18T09:30:27.510Z,3.60
2022-09-18T09:32:58.195Z,3.77
2022-09-18T09:35:27.860Z,5.17
2022-09-18T09:37:55.492Z,3.57
2022-09-18T09:40:25.122Z,3.67
2022-09-18T09:42:54.295Z,3.37
2022-09-18T09:45:25.074Z,4.73
2022-09-18T09:47:58.205Z,2.40
2022-09-18T09:50:34.990Z,4.10
2022-09-18T09:53:03.990Z,2.33
2022-09-18T09:55:32.712Z,3.50
2022-09-18T09:58:05.416Z,4.03
2022-09-18T10:00:35.735Z,4.53
2022-09-18T10:03:47.962Z,3.10
2022-09-18T10:06:28.887Z,4.13
2022-09-18T10:08:59.607Z,4.10
2022-09-18T10:11:27.358Z,3.60
2022-09-18T10:13:56.907Z,4.60
2022-09-18T10:16:25.876Z,5.73
2022-09-18T10:18:55.160Z,6.50
2022-09-18T10:21:24.377Z,4.27
2022-09-18T10:23:55.752Z,4.37
2022-09-18T10:26:25.044Z,3.90
2022-09-18T10:28:52.975Z,4.40
2022-09-18T10:31:20.795Z,6.90
2022-09-18T10:33:49.452Z,4.27
2022-09-18T10:36:22.650Z,3.20
2022-09-18T10:38:50.752Z,3.53
2022-09-18T10:41:27.371Z,3.07
2022-09-18T10:43:57.748Z,2.70
2022-09-18T10:46:27.038Z,2.50
2022-09-18T10:48:55.170Z,5.73
2022-09-18T10:51:26.164Z,4.23
2022-09-18T10:54:05.012Z,4.70
2022-09-18T10:56:33.338Z,9.63
2022-09-18T10:59:33.660Z,10.77
2022-09-18T11:02:02.404Z,3.67
2022-09-18T11:04:30.216Z,4.37
2022-09-18T11:07:04.332Z,5.10
2022-09-18T11:09:34.265Z,4.83
2022-09-18T11:12:02.827Z,3.77
2022-09-18T11:14:32.125Z,4.67
2022-09-18T11:17:01.245Z,6.60
2022-09-18T11:19:29.833Z,5.13
2022-09-18T11:22:01.529Z,3.97
2022-09-18T11:24:31.231Z,5.30
2022-09-18T11:26:59.967Z,4.50
2022-09-18T11:29:32.168Z,4.30
2022-09-18T11:32:07.456Z,5.40
2022-09-18T11:34:38.211Z,4.13
2022-09-18T11:37:09.158Z,3.70
2022-09-18T11:39:39.032Z,4.20
2022-09-18T11:42:11.715Z,6.43
2022-09-18T11:44:39.450Z,5.90
2022-09-18T11:47:26.972Z,4.90
2022-09-18T11:49:58.429Z,5.63
2022-09-18T11:52:30.806Z,4.70
2022-09-18T11:54:59.893Z,2.83
2022-09-18T11:57:28.656Z,2.67
2022-09-18T11:59:58.930Z,2.63
2022-09-18T12:02:31.194Z,4.50
2022-09-18T12:05:02.097Z,1.93
2022-09-18T12:07:38.046Z,3.03
2022-09-18T12:10:11.280Z,2.27
2022-09-18T12:12:41.664Z,2.07
2022-09-18T12:15:12.626Z,2.23
2022-09-18T12:17:42.676Z,1.90
2022-09-18T12:20:12.276Z,2.70
2022-09-18T12:22:44.755Z,3.53
2022-09-18T12:25:15.290Z,2.60
2022-09-18T12:27:46.296Z,2.40
2022-09-18T12:30:15.012Z,1.70
2022-09-18T12:33:05.656Z,2.10
2022-09-18T12:35:40.886Z,2.17
2022-09-18T12:38:16.724Z,3.23
2022-09-18T12:40:55.494Z,3.20
2022-09-18T12:43:37.124Z,2.43
2022-09-18T12:46:17.625Z,3.10
2022-09-18T12:48:54.355Z,1.70
2022-09-18T12:51:35.678Z,2.23
2022-09-18T12:54:17.137Z,3.57
2022-09-18T12:56:52.725Z,2.30
2022-09-18T12:59:28.869Z,3.10
2022-09-18T13:01:58.826Z,3.17
2022-09-18T13:04:28.591Z,3.90
2022-09-18T13:06:58.982Z,2.63
2022-09-18T13:09:31.082Z,2.03
2022-09-18T13:12:00.534Z,4.37
2022-09-18T13:14:30.201Z,4.43
2022-09-18T13:17:00.953Z,3.67
2022-09-18T13:19:30.372Z,7.80
2022-09-18T13:21:58.724Z,4.27
2022-09-18T13:24:33.907Z,1.93
2022-09-18T13:27:02.631Z,3.30
2022-09-18T13:29:50.691Z,3.23
2022-09-18T13:32:19.693Z,4.40
2022-09-18T13:34:50.527Z,3.27
2022-09-18T13:37:19.645Z,3.03
2022-09-18T13:40:09.195Z,1.60
2022-09-18T13:42:39.706Z,2.77
2022-09-18T13:45:18.209Z,2.77
2022-09-18T13:48:01.142Z,2.30
2022-09-18T13:50:29.399Z,3.77
2022-09-18T13:52:58.026Z,3.07
2022-09-18T13:55:35.693Z,2.20
2022-09-18T13:58:35.673Z,2.83
2022-09-18T14:01:04.289Z,4.00
2022-09-18T14:03:39.439Z,2.60
2022-09-18T14:06:45.890Z,2.90
2022-09-18T14:09:46.698Z,2.90
2022-09-18T14:12:16.993Z,3.03
2022-09-18T14:14:45.238Z,4.73
2022-09-18T14:17:13.866Z,6.80
2022-09-18T14:19:41.631Z,5.53
2022-09-18T14:22:23.136Z,4.97
2022-09-18T14:25:00.031Z,2.90
2022-09-18T14:27:40.879Z,4.40
2022-09-18T14:30:19.622Z,3.83
2022-09-18T14:33:04.477Z,5.33
2022-09-18T14:35:39.060Z,5.43
2022-09-18T14:38:18.813Z,6.80
2022-09-18T14:40:50.842Z,4.67
2022-09-18T14:43:21.789Z,5.13
2022-09-18T14:46:05.804Z,4.73
2022-09-18T14:48:37.718Z,1.80
2022-09-18T14:51:07.080Z,2.23
2022-09-18T14:53:42.954Z,2.37
2022-09-18T14:56:12.432Z,2.47
2022-09-18T14:58:43.633Z,2.20
2022-09-18T15:01:16.450Z,3.17
2022-09-18T15:03:46.381Z,3.40
2022-09-18T15:06:17.930Z,2.17
2022-09-18T15:08:46.366Z,2.70
2022-09-18T15:11:14.946Z,2.40
2022-09-18T15:13:44.331Z,3.20
2022-09-18T15:16:19.040Z,1.87
2022-09-18T15:18:50.532Z,3.57
2022-09-18T15:21:23.802Z,2.67
2022-09-18T15:23:52.652Z,2.60
2022-09-18T15:26:23.681Z,3.83
2022-09-18T15:28:53.398Z,2.57
2022-09-18T15:31:21.897Z,3.07
2022-09-18T15:33:52.456Z,2.97
2022-09-18T15:36:24.995Z,4.60
2022-09-18T15:38:53.241Z,2.37
2022-09-18T15:41:22.781Z,3.17
2022-09-18T15:43:52.008Z,5.70
2022-09-18T15:46:26.589Z,3.80
2022-09-18T15:48:59.562Z,8.63
2022-09-18T15:51:28.972Z,2.53
2022-09-18T15:54:09.624Z,2.03
2022-09-18T15:56:39.592Z,2.70
2022-09-18T15:59:16.567Z,3.13
2022-09-18T16:01:46.997Z,3.27
2022-09-18T16:04:20.253Z,4.93
2022-09-18T16:07:00.399Z,7.17
2022-09-18T16:09:35.629Z,4.97
2022-09-18T16:12:03.815Z,2.00
2022-09-18T16:14:46.222Z,3.40
2022-09-18T16:17:38.326Z,2.93
2022-09-18T16:20:25.919Z,4.83
2022-09-18T16:22:55.691Z,4.63
2022-09-18T16:25:26.395Z,2.87
2022-09-18T16:27:55.975Z,3.60
2022-09-18T16:30:25.164Z,2.80
2022-09-18T16:32:57.202Z,2.87
2022-09-18T16:35:25.426Z,2.00
2022-09-18T16:37:55.225Z,2.03
2022-09-18T16:40:27.422Z,2.67
2022-09-18T16:42:58.266Z,3.73
2022-09-18T16:45:28.063Z,5.67
2022-09-18T16:48:00.499Z,3.57
2022-09-18T16:50:28.693Z,3.93
2022-09-18T16:53:00.716Z,2.20
2022-09-18T16:55:29.010Z,3.50
2022-09-18T16:57:56.842Z,2.27
2022-09-18T17:00:24.914Z,3.07
2022-09-18T17:02:55.329Z,4.27
2022-09-18T17:05:23.068Z,3.07
2022-09-18T17:07:51.099Z,3.03
2022-09-18T17:10:19.128Z,2.10
2022-09-18T17:12:47.686Z,2.77
2022-09-18T17:15:15.340Z,1.83
2022-09-18T17:17:43.575Z,4.67
2022-09-18T17:20:14.091Z,4.97
2022-09-18T17:22:41.720Z,1.73
2022-09-18T17:25:09.802Z,1.77
2022-09-18T17:27:41.731Z,6.93
2022-09-18T17:30:12.996Z,2.40
2022-09-18T17:32:40.618Z,8.53
2022-09-18T17:35:08.901Z,4.60
2022-09-18T17:37:37.919Z,3.10
2022-09-18T17:40:06.271Z,2.50
2022-09-18T17:42:34.361Z,1.53
2022-09-18T17:45:01.988Z,2.87
2022-09-18T17:47:29.612Z,2.70
2022-09-18T17:49:57.226Z,2.10
2022-09-18T17:52:24.820Z,2.00
2022-09-18T17:54:53.990Z,1.77
2022-09-18T17:57:21.689Z,3.90
2022-09-18T17:59:49.348Z,1.77
2022-09-18T18:02:17.260Z,2.47
2022-09-18T18:04:45.093Z,1.67
2022-09-18T18:07:13.105Z,14.47
2022-09-18T18:09:41.074Z,2.97
2022-09-18T18:12:14.561Z,14.70
2022-09-18T18:14:42.609Z,1.83
2022-09-18T18:17:10.273Z,12.47
2022-09-18T18:19:38.406Z,8.77
2022-09-18T18:22:06.350Z,1.40
2022-09-18T18:24:34.297Z,1.43
2022-09-18T18:27:04.433Z,1.00
2022-09-18T18:29:33.506Z,4.33
2022-09-18T18:32:01.354Z,1.97
2022-09-18T18:34:30.077Z,1.50
2022-09-18T18:36:57.829Z,5.00
2022-09-18T18:39:25.513Z,8.80
2022-09-18T18:41:53.221Z,4.63
2022-09-18T18:44:20.941Z,10.40
2022-09-18T18:46:51.094Z,5.40
2022-09-18T18:49:19.012Z,8.17
2022-09-18T18:51:48.241Z,5.23
2022-09-18T18:54:19.191Z,3.90
2022-09-18T18:56:47.305Z,3.33
2022-09-18T18:59:17.226Z,3.07
2022-09-18T19:01:45.138Z,2.53
2022-09-18T19:04:16.912Z,2.30
2022-09-18T19:06:48.850Z,2.70
2022-09-18T19:09:20.282Z,2.70
2022-09-18T19:11:49.296Z,3.80
2022-09-18T19:14:18.292Z,2.43
2022-09-18T19:16:46.226Z,2.77
2022-09-18T19:19:16.002Z,2.93
2022-09-18T19:21:43.742Z,5.57
2022-09-18T19:24:12.237Z,4.70
2022-09-18T19:26:41.776Z,2.33
2022-09-18T19:29:12.139Z,2.50
2022-09-18T19:31:40.526Z,2.57
2022-09-18T19:34:08.358Z,4.80
2022-09-18T19:36:37.470Z,4.23
2022-09-18T19:39:06.078Z,3.30
2022-09-18T19:41:38.836Z,4.90
2022-09-18T19:44:07.383Z,3.87
2022-09-18T19:46:35.560Z,3.07
2022-09-18T19:49:03.391Z,2.83
2022-09-18T19:51:31.155Z,3.60
2022-09-18T19:54:00.179Z,6.30
2022-09-18T19:56:42.653Z,2.67
2022-09-18T19:59:11.022Z,5.97
2022-09-18T20:01:38.739Z,2.70
2022-09-18T20:04:06.456Z,4.10
2022-09-18T20:06:34.245Z,3.17
2022-09-18T20:09:03.500Z,7.30
2022-09-18T20:11:31.210Z,4.17
2022-09-18T20:13:59.488Z,2.37
2022-09-18T20:16:27.318Z,5.57
2022-09-18T20:18:55.362Z,6.63
2022-09-18T20:21:24.110Z,4.17
2022-09-18T20:23:56.747Z,3.80
2022-09-18T20:26:25.993Z,3.80
2022-09-18T20:28:53.677Z,2.80
2022-09-18T20:31:23.404Z,3.03
2022-09-18T20:33:55.062Z,3.40
2022-09-18T20:36:22.786Z,2.80
2022-09-18T20:38:52.352Z,5.20
2022-09-18T20:41:21.070Z,3.00
2022-09-18T20:43:53.175Z,5.00
2022-09-18T20:46:20.990Z,3.30
2022-09-18T20:48:55.103Z,3.97
2022-09-18T20:51:24.322Z,4.27
2022-09-18T20:53:52.112Z,7.90
2022-09-18T20:56:21.815Z,5.23
2022-09-18T20:58:51.548Z,6.30
2022-09-18T21:01:20.559Z,7.40
2022-09-18T21:03:49.415Z,5.20
2022-09-18T21:06:22.811Z,5.50
2022-09-18T21:08:53.380Z,5.40
2022-09-18T21:11:22.926Z,5.77
2022-09-18T21:13:54.129Z,4.93
2022-09-18T21:16:22.124Z,5.97
2022-09-18T21:18:50.190Z,6.53
2022-09-18T21:21:17.994Z,10.03
2022-09-18T21:23:56.341Z,7.13
2022-09-18T21:26:26.090Z,6.90
2022-09-18T21:28:55.883Z,6.90
2022-09-18T21:31:24.616Z,7.53
2022-09-18T21:33:53.259Z,6.13
2022-09-18T21:36:21.681Z,10.20
2022-09-18T21:38:50.887Z,9.97
2022-09-18T21:41:19.130Z,8.43
2022-09-18T21:43:50.445Z,8.53
2022-09-18T21:46:20.339Z,6.43
2022-09-18T21:48:48.553Z,7.83
2022-09-18T21:51:17.712Z,8.83
2022-09-18T21:53:45.421Z,9.83
2022-09-18T21:56:14.425Z,8.37
2022-09-18T21:58:44.956Z,10.80
2022-09-18T22:01:15.571Z,10.57
2022-09-18T22:03:50.412Z,9.63
2022-09-18T22:06:19.231Z,11.63
2022-09-18T22:08:52.418Z,10.77
2022-09-18T22:11:20.465Z,13.20
2022-09-18T22:13:48.262Z,13.07
2022-09-18T22:16:16.161Z,12.77
2022-09-18T22:18:48.347Z,12.67
2022-09-18T22:21:20.281Z,12.50
2022-09-18T22:23:52.952Z,10.27
2022-09-18T22:26:20.888Z,11.50
2022-09-18T22:28:50.287Z,12.60
2022-09-18T22:31:18.447Z,15.40
2022-09-18T22:33:47.898Z,15.87
2022-09-18T22:38:43.382Z,11.17
2022-09-18T22:41:11.068Z,10.97
2022-09-18T22:43:38.685Z,11.33
2022-09-18T22:46:07.732Z,13.17
2022-09-18T22:48:35.681Z,11.40
2022-09-18T22:51:09.454Z,10.53
2022-09-18T22:53:37.451Z,10.70
2022-09-18T22:56:05.940Z,11.67
2022-09-18T22:58:34.737Z,12.30
2022-09-18T23:01:09.121Z,9.27
2022-09-18T23:03:38.147Z,9.87
2022-09-18T23:06:06.904Z,12.17
2022-09-18T23:08:36.296Z,11.40
2022-09-18T23:11:07.277Z,10.33
2022-09-18T23:13:35.237Z,10.50
2022-09-18T23:16:04.862Z,12.27
2022-09-18T23:18:32.531Z,10.97
2022-09-18T23:21:02.281Z,11.63
2022-09-18T23:23:30.871Z,11.07
2022-09-18T23:26:04.798Z,10.97
2022-09-18T23:28:33.940Z,10.70
2022-09-18T23:31:06.081Z,12.43
2022-09-18T23:33:33.694Z,10.53
2022-09-18T23:36:11.432Z,10.13
2022-09-18T23:38:39.084Z,9.03
2022-09-18T23:41:11.128Z,6.90
2022-09-18T23:43:38.991Z,9.20
2022-09-18T23:46:07.903Z,10.53
2022-09-18T23:48:35.487Z,5.77
2022-09-18T23:51:03.354Z,6.07
2022-09-18T23:53:35.171Z,6.67
2022-09-18T23:56:06.326Z,7.00
2022-09-18T23:58:35.354Z,11.03
